Time;durP1;ratioP1;P1;durP2;ratioP2;P2;SDS_P1;SDS_P2;PMS_P1;PMS_P2;Temp;Humidity;BMP_temperature;BMP_pressure;BME280_temperature;BME280_humidity;BME280_pressure;Samples;Min_cycle;Max_cycle;Signal;HPM_P1;HPM_P2
2022/03/04 00:01:15;;;;;;;;;;;3.40;75.00;;;2.72;62.32;100726.16;5037686;28;19925;-77
2022/03/04 00:03:43;;;;;;;;;;;3.40;76.10;;;2.74;61.48;100737.47;5046788;28;19929;-77
2022/03/04 00:06:09;;;;;;;;;;;3.30;75.80;;;2.77;61.71;100731.44;5066220;28;19944;-76
2022/03/04 00:08:36;;;;;;;;;;;3.30;75.80;;;2.79;61.77;100730.63;5060650;28;19932;-76
2022/03/04 00:11:03;;;;;;;;;;;5.10;77.10;;;2.82;61.12;100722.00;5056054;28;19967;-76
2022/03/04 00:13:32;;;;;;;;;;;5.10;76.50;;;2.84;61.50;100721.13;5045358;28;20393;-77
2022/03/04 00:16:00;;;;;;;;;;;3.30;76.00;;;2.86;60.79;100722.88;5060451;28;19928;-76
2022/03/04 00:18:27;;;;;;;;;;;3.80;75.90;;;2.84;61.11;100730.69;5072802;28;19932;-77
2022/03/04 00:20:54;;;;;;;;;;;4.40;76.30;;;2.82;60.64;100717.66;5070720;28;19931;-77
2022/03/04 00:23:21;;;;;;;;;;;3.90;76.00;;;2.82;61.28;100722.84;5040641;28;20307;-77
2022/03/04 00:25:48;;;;;;;;;;;3.30;75.70;;;2.87;61.55;100725.50;5051934;28;20405;-77
2022/03/04 00:28:15;;;;;;;;;;;3.90;76.10;;;2.89;61.23;100728.13;5063571;28;19924;-76
2022/03/04 00:30:42;;;;;;;;;;;3.40;75.70;;;2.83;61.68;100727.19;5050900;28;20352;-76
2022/03/04 00:33:09;;;;;;;;;;;3.90;76.20;;;2.86;61.51;100728.09;5059409;28;20412;-76
2022/03/04 00:35:36;;;;;;;;;;;4.00;76.30;;;2.81;61.92;100734.09;5036634;28;19929;-77
2022/03/04 00:38:03;;;;;;;;;;;4.50;76.60;;;2.79;61.88;100732.31;5052869;28;19956;-77
2022/03/04 00:40:30;;;;;;;;;;;3.40;76.10;;;2.75;61.26;100726.22;5043735;28;19933;-76
2022/03/04 00:42:57;;;;;;;;;;;4.00;75.70;;;2.70;61.22;100727.88;5042671;28;19929;-77
2022/03/04 00:45:24;;;;;;;;;;;4.10;75.90;;;2.67;61.69;100730.44;5050251;28;19925;-78
2022/03/04 00:47:51;;;;;;;;;;;3.30;75.40;;;2.61;62.03;100736.41;5055371;28;19928;-77
2022/03/04 00:50:18;;;;;;;;;;;3.20;75.50;;;2.61;62.25;100732.94;5050513;28;20316;-76
2022/03/04 00:52:45;;;;;;;;;;;3.20;75.70;;;2.57;62.01;100736.34;5045746;28;19931;-76
2022/03/04 00:55:12;;;;;;;;;;;3.30;75.90;;;2.55;61.84;100734.59;5050605;28;19965;-77
2022/03/04 00:57:39;;;;;;;;;;;3.10;75.30;;;2.45;63.14;100735.31;5041537;28;20019;-77
2022/03/04 01:00:07;;;;;;;;;;;3.70;76.40;;;2.39;63.97;100738.69;5022287;28;19932;-77
2022/03/04 01:02:34;;;;;;;;;;;3.10;76.40;;;2.43;63.12;100736.13;5036690;28;19998;-77
2022/03/04 01:05:01;;;;;;;;;;;2.80;76.20;;;2.43;62.65;100731.84;5052505;28;20015;-76
2022/03/04 01:07:28;;;;;;;;;;;3.10;76.40;;;2.38;63.73;100731.75;5033971;28;20002;-76
2022/03/04 01:09:55;;;;;;;;;;;4.30;77.50;;;2.37;65.09;100736.91;5034250;28;19928;-76
2022/03/04 01:12:22;;;;;;;;;;;3.00;77.80;;;2.35;65.49;100741.22;5049844;28;20632;-76
2022/03/04 01:14:51;;;;;;;;;;;4.20;78.80;;;2.34;66.44;100731.69;5018669;28;19947;-76
2022/03/04 01:17:18;;;;;;;;;;;4.10;79.20;;;2.29;67.27;100738.53;5052195;28;19928;-77
2022/03/04 01:19:45;;;;;;;;;;;3.00;79.30;;;2.31;66.75;100735.09;5035964;28;20297;-77
2022/03/04 01:22:12;;;;;;;;;;;3.80;79.30;;;2.30;67.98;100735.94;5035770;28;20632;-77
2022/03/04 01:24:39;;;;;;;;;;;3.00;79.80;;;2.29;68.75;100736.78;5051350;28;19925;-77
2022/03/04 01:27:06;;;;;;;;;;;2.90;80.30;;;2.27;68.92;100733.31;5052270;28;19931;-77
2022/03/04 01:29:33;;;;;;;;;;;3.00;80.50;;;2.30;69.14;100727.28;5051735;28;19929;-77
2022/03/04 01:32:00;;;;;;;;;;;3.20;80.90;;;2.30;69.48;100727.28;5052267;28;19935;-77
2022/03/04 01:34:26;;;;;;;;;;;3.00;81.20;;;2.29;69.49;100725.53;5049527;28;19928;-77
2022/03/04 01:36:54;;;;;;;;;;;2.90;81.20;;;2.31;69.04;100716.91;5051071;28;19932;-77
2022/03/04 01:39:26;;;;;;;;;;;2.90;81.40;;;2.29;69.65;100713.41;5033927;28;19933;-77
2022/03/04 01:41:53;;;;;;;;;;;2.90;81.40;;;2.28;69.00;100711.69;5049658;28;20015;-76
2022/03/04 01:44:21;;;;;;;;;;;4.70;82.30;;;2.25;68.48;100709.03;5048068;28;19940;-75
2022/03/04 01:46:48;;;;;;;;;;;2.90;81.10;;;2.30;69.63;100709.13;5057654;28;19935;-76
2022/03/04 01:49:15;;;;;;;;;;;4.80;82.60;;;2.23;70.95;100715.94;5068712;28;20026;-76
2022/03/04 01:51:43;;;;;;;;;;;4.10;82.90;;;2.23;70.61;100713.34;5069221;28;20316;-75
2022/03/04 01:54:09;;;;;;;;;;;2.90;82.10;;;2.22;71.08;100709.84;5068081;28;19932;-76
2022/03/04 01:56:36;;;;;;;;;;;4.20;83.00;;;2.20;71.46;100708.09;5069085;28;19935;-75
2022/03/04 01:59:03;;;;;;;;;;;2.90;82.80;;;2.17;73.22;100706.31;5068448;28;20346;-76
2022/03/04 02:01:32;;;;;;;;;;;2.80;83.90;;;2.15;73.69;100707.13;5068987;28;20577;-76
2022/03/04 02:03:59;;;;;;;;;;;2.80;83.90;;;2.11;73.32;100704.50;5068108;28;19928;-77
2022/03/04 02:06:26;;;;;;;;;;;2.70;83.80;;;2.08;73.59;100706.16;5068703;28;19928;-76
2022/03/04 02:08:53;;;;;;;;;;;2.80;83.90;;;2.06;73.34;100710.44;5052686;28;19929;-76
2022/03/04 02:11:20;;;;;;;;;;;2.70;83.60;;;2.02;73.66;100704.31;5068776;28;19924;-77
2022/03/04 02:13:47;;;;;;;;;;;2.80;83.80;;;2.00;75.44;100708.63;5049810;28;19936;-74
2022/03/04 02:16:39;;;;;;;;;;;2.60;84.80;;;1.94;76.06;100718.91;5068567;28;19928;-75
2022/03/04 02:19:06;;;;;;;;;;;2.50;84.80;;;1.94;78.13;100711.13;5052991;28;19970;-76
2022/03/04 02:21:34;;;;;;;;;;;2.70;85.80;;;1.90;77.62;100707.59;5051732;28;19929;-75
2022/03/04 02:24:01;;;;;;;;;;;3.00;86.40;;;1.90;75.20;100705.00;5067454;28;20449;-76
2022/03/04 02:26:28;;;;;;;;;;;3.20;85.50;;;1.93;77.17;100706.78;5051218;28;19935;-75
2022/03/04 02:28:55;;;;;;;;;;;2.60;86.40;;;1.94;77.26;100717.19;5069979;28;19982;-78
2022/03/04 02:31:21;;;;;;;;;;;2.50;86.80;;;1.86;79.12;100711.00;5069712;28;20277;-76
2022/03/04 02:33:50;;;;;;;;;;;2.70;87.30;;;1.85;79.03;100722.22;5069249;28;19928;-77
2022/03/04 02:36:17;;;;;;;;;;;2.50;87.20;;;1.82;78.15;100711.81;5052710;28;19931;-76
2022/03/04 02:38:44;;;;;;;;;;;4.00;87.90;;;1.82;78.56;100706.63;5052019;28;19999;-76
2022/03/04 02:41:11;;;;;;;;;;;4.40;87.70;;;1.77;79.57;100716.00;5051554;28;19928;-76
2022/03/04 02:43:38;;;;;;;;;;;2.60;87.50;;;1.72;80.58;100710.78;5067339;28;19928;-76
2022/03/04 02:46:06;;;;;;;;;;;2.40;87.60;;;1.73;80.26;100716.81;5068032;28;19929;-75
2022/03/04 02:48:32;;;;;;;;;;;2.40;87.90;;;1.68;82.11;100722.81;5068070;28;20369;-76
2022/03/04 02:51:00;;;;;;;;;;;2.40;88.70;;;1.69;82.86;100719.38;5053308;28;19925;-76
2022/03/04 02:53:27;;;;;;;;;;;2.40;89.10;;;1.66;83.85;100713.22;5051271;28;19971;-76
2022/03/04 02:55:54;;;;;;;;;;;2.50;89.90;;;1.64;83.23;100723.59;5069706;28;19924;-76
2022/03/04 02:58:21;;;;;;;;;;;2.60;89.80;;;1.61;84.47;100720.94;5036458;28;19932;-76
2022/03/04 03:00:48;;;;;;;;;;;3.70;90.50;;;1.62;82.26;100725.25;5054763;28;19932;-77
2022/03/04 03:03:16;;;;;;;;;;;2.30;89.20;;;1.61;83.30;100720.94;5069867;28;19931;-77
2022/03/04 03:05:43;;;;;;;;;;;2.30;89.50;;;1.58;85.81;100722.63;5037822;28;20026;-77
2022/03/04 03:08:10;;;;;;;;;;;2.20;90.20;;;1.53;86.35;100728.56;5037967;28;19931;-77
2022/03/04 03:10:37;;;;;;;;;;;2.20;90.40;;;1.57;84.00;100726.91;5043649;28;19972;-76
2022/03/04 03:13:04;;;;;;;;;;;2.20;90.20;;;1.51;82.29;100721.63;5050638;28;19924;-76
2022/03/04 03:15:32;;;;;;;;;;;2.00;89.10;;;1.53;82.88;100719.94;5068872;28;19971;-77
2022/03/04 03:17:59;;;;;;;;;;;2.30;89.30;;;1.49;82.56;100720.72;5069195;28;20016;-77
2022/03/04 03:20:26;;;;;;;;;;;2.20;89.10;;;1.45;82.40;100717.19;5053269;28;19924;-76
2022/03/04 03:22:53;;;;;;;;;;;3.40;89.80;;;1.33;82.88;100725.63;5068623;28;20598;-77
2022/03/04 03:25:20;;;;;;;;;;;2.20;89.00;;;1.23;83.99;100721.09;5051575;28;19924;-77
2022/03/04 03:27:48;;;;;;;;;;;2.00;89.30;;;1.08;87.78;100727.69;5069338;28;19928;-77
2022/03/04 03:30:15;;;;;;;;;;;2.00;89.80;;;0.89;88.72;100720.38;5051329;28;20031;-76
2022/03/04 03:32:41;;;;;;;;;;;2.20;90.20;;;0.77;88.26;100727.03;5066733;28;19928;-77
2022/03/04 03:35:08;;;;;;;;;;;1.90;90.30;;;0.62;89.97;100721.53;5033873;28;19928;-76
2022/03/04 03:37:36;;;;;;;;;;;1.70;90.60;;;0.51;89.04;100722.16;5067219;28;19928;-77
2022/03/04 03:40:09;;;;;;;;;;;1.50;90.20;;;0.33;91.52;100724.31;5066764;28;19936;-76
2022/03/04 03:42:37;;;;;;;;;;;1.40;90.70;;;0.38;92.72;100723.59;5051124;28;20321;-76
2022/03/04 03:45:04;;;;;;;;;;;1.40;91.20;;;0.07;92.90;100724.53;5050710;28;20320;-77
2022/03/04 03:47:31;;;;;;;;;;;1.30;91.10;;;0.13;92.84;100722.97;5069901;28;20278;-77
2022/03/04 03:49:58;;;;;;;;;;;1.60;91.20;;;0.12;92.65;100718.66;5069187;28;19939;-76
2022/03/04 03:52:25;;;;;;;;;;;1.10;91.50;;;-0.01;94.92;100717.47;5067412;28;19929;-77
2022/03/04 03:54:52;;;;;;;;;;;1.00;92.00;;;-0.02;95.38;100728.66;5050352;28;19978;-76
2022/03/04 03:57:19;;;;;;;;;;;0.90;92.10;;;-0.23;93.98;100729.00;5051263;28;19959;-77
2022/03/04 03:59:46;;;;;;;;;;;0.90;91.70;;;-0.17;96.68;100725.69;5067484;28;20306;-76
2022/03/04 04:02:13;;;;;;;;;;;0.50;92.30;;;-0.19;100.00;100728.22;5034870;28;19929;-77
2022/03/04 04:04:41;;;;;;;;;;;0.60;93.00;;;-0.09;100.00;100733.66;5052735;28;20343;-77
2022/03/04 04:07:10;;;;;;;;;;;0.80;93.40;;;-0.03;100.00;100742.44;5052857;28;19935;-77
2022/03/04 04:09:37;;;;;;;;;;;0.50;93.50;;;-0.03;100.00;100734.69;5053296;28;19925;-78
2022/03/04 04:12:05;;;;;;;;;;;0.70;93.50;;;0.01;100.00;100738.22;5053521;28;20354;-77
2022/03/04 04:14:32;;;;;;;;;;;1.00;93.60;;;0.05;100.00;100736.56;5052863;28;19939;-77
2022/03/04 04:16:59;;;;;;;;;;;0.80;93.80;;;0.11;100.00;100731.56;5048862;28;19955;-77
2022/03/04 04:19:26;;;;;;;;;;;1.00;93.60;;;0.04;100.00;100740.88;5051594;28;19928;-76
2022/03/04 04:21:53;;;;;;;;;;;0.80;93.70;;;0.10;99.81;100747.94;5068974;28;19928;-78
2022/03/04 04:24:20;;;;;;;;;;;-0.30;92.90;;;0.08;98.48;100747.00;5035022;28;19931;-77
2022/03/04 04:26:47;;;;;;;;;;;0.80;93.00;;;0.08;99.07;100747.00;5039775;28;20070;-76
2022/03/04 04:29:14;;;;;;;;;;;2.10;93.50;;;-0.04;100.00;100760.50;5050017;28;19924;-75
2022/03/04 04:31:41;;;;;;;;;;;1.00;93.60;;;-0.13;100.00;100755.09;5068611;28;19979;-78
2022/03/04 04:34:08;;;;;;;;;;;0.80;93.40;;;-0.34;100.00;100757.16;5070167;28;20639;-78
2022/03/04 04:36:35;;;;;;;;;;;0.90;93.60;;;-0.43;100.00;100759.47;5069779;28;19935;-78
2022/03/04 04:39:03;;;;;;;;;;;0.60;93.70;;;-0.59;100.00;100760.78;5057192;28;19983;-77
2022/03/04 04:41:31;;;;;;;;;;;0.90;94.20;;;-0.62;100.00;100763.28;5075163;28;19935;-77
2022/03/04 04:43:58;;;;;;;;;;;0.50;94.60;;;-0.60;100.00;100764.22;5055517;28;19936;-77
2022/03/04 04:46:25;;;;;;;;;;;0.50;95.00;;;-0.93;100.00;100765.84;5055474;28;20073;-77
2022/03/04 04:48:52;;;;;;;;;;;1.10;94.50;;;-1.02;100.00;100768.16;5039130;28;19929;-77
2022/03/04 04:51:19;;;;;;;;;;;0.30;94.90;;;-1.06;100.00;100768.91;5039446;28;19929;-77
2022/03/04 04:53:46;;;;;;;;;;;2.30;96.00;;;-1.06;100.00;100769.78;5038761;28;20348;-77
2022/03/04 04:56:12;;;;;;;;;;;2.20;96.10;;;-1.05;100.00;100773.22;5039567;28;20289;-77
2022/03/04 04:58:39;;;;;;;;;;;-0.10;95.60;;;-1.12;100.00;100779.91;5038716;28;20289;-77
2022/03/04 05:01:07;;;;;;;;;;;0.00;95.60;;;-1.17;100.00;100773.75;5070019;28;19950;-77
2022/03/04 05:03:34;;;;;;;;;;;0.00;95.70;;;-1.16;100.00;100775.50;5053316;28;19925;-78
2022/03/04 05:06:02;;;;;;;;;;;-0.10;95.50;;;-1.33;100.00;100781.00;5070564;28;20294;-76
2022/03/04 05:08:29;;;;;;;;;;;1.50;96.20;;;-1.34;100.00;100778.38;5076450;28;19970;-77
2022/03/04 05:10:57;;;;;;;;;;;-0.20;95.40;;;-1.63;100.00;100794.69;5070749;28;20452;-77
2022/03/04 05:13:24;;;;;;;;;;;-0.20;95.00;;;-1.72;100.00;100787.53;5070193;28;20285;-76
2022/03/04 05:15:51;;;;;;;;;;;-0.20;95.20;;;-1.77;100.00;100799.41;5054081;28;20023;-76
2022/03/04 05:18:18;;;;;;;;;;;-0.30;95.40;;;-1.65;100.00;100801.50;5037449;28;20655;-78
2022/03/04 05:20:45;;;;;;;;;;;-0.60;95.90;;;-1.87;100.00;100808.53;5070348;28;19925;-77
2022/03/04 05:23:58;;;;;;;;;;;-0.60;96.00;;;-1.72;100.00;100810.75;5070186;28;19940;-77
2022/03/04 05:25:59;;;;;;;;;;;-0.50;96.30;;;-1.84;100.00;100812.91;5070290;28;19924;-77
2022/03/04 05:28:26;;;;;;;;;;;0.90;97.10;;;-1.79;100.00;100815.66;5069762;28;19925;-78
2022/03/04 05:30:53;;;;;;;;;;;0.10;96.50;;;-1.79;100.00;100811.38;5069631;28;19928;-77
2022/03/04 05:33:20;;;;;;;;;;;-0.70;97.00;;;-1.92;100.00;100815.22;5053178;28;19931;-78
2022/03/04 05:35:47;;;;;;;;;;;-0.80;96.60;;;-1.81;100.00;100815.59;5069929;28;19928;-77
2022/03/04 05:38:14;;;;;;;;;;;-0.60;96.80;;;-1.69;100.00;100816.84;5070366;28;19928;-84
2022/03/04 05:40:41;;;;;;;;;;;-0.90;97.50;;;-1.63;100.00;100811.91;5039124;28;19924;-81
2022/03/04 05:43:08;;;;;;;;;;;2.10;98.40;;;-1.56;100.00;100813.84;5034605;28;19935;-77
2022/03/04 05:45:35;;;;;;;;;;;-0.70;97.60;;;-1.49;100.00;100813.19;5068731;28;19935;-78
2022/03/04 05:48:02;;;;;;;;;;;-0.70;97.40;;;-1.58;100.00;100826.69;5035075;28;19935;-78
2022/03/04 05:50:29;;;;;;;;;;;-0.50;97.50;;;-1.61;100.00;100831.75;5034446;28;19925;-77
2022/03/04 05:52:56;;;;;;;;;;;-0.60;96.70;;;-1.73;100.00;100832.22;5033719;28;19925;-77
2022/03/04 05:55:23;;;;;;;;;;;-0.60;96.90;;;-1.69;100.00;100833.22;5033496;28;19972;-78
2022/03/04 05:57:50;;;;;;;;;;;-0.60;97.50;;;-1.66;100.00;100835.88;5049572;28;19982;-78
2022/03/04 06:00:17;;;;;;;;;;;-0.40;97.80;;;-1.60;100.00;100837.78;5050943;28;19932;-77
2022/03/04 06:02:44;;;;;;;;;;;0.30;98.00;;;-1.55;100.00;100854.31;5048978;28;19932;-77
2022/03/04 06:05:11;;;;;;;;;;;-0.70;98.10;;;-1.60;100.00;100840.38;5051341;28;19959;-78
2022/03/04 06:07:38;;;;;;;;;;;0.70;98.20;;;-1.38;100.00;100841.06;5049280;28;19928;-78
2022/03/04 06:10:06;;;;;;;;;;;0.40;98.30;;;-1.37;100.00;100837.66;5033787;28;19932;-78
2022/03/04 06:12:33;;;;;;;;;;;-0.50;97.70;;;-1.36;100.00;100842.88;5051647;28;20108;-78
2022/03/04 06:15:02;;;;;;;;;;;-0.40;98.00;;;-1.35;100.00;100838.59;5051483;28;20031;-78
2022/03/04 06:17:33;;;;;;;;;;;0.30;97.90;;;-1.34;100.00;100838.66;5075872;28;19927;-77
2022/03/04 06:20:15;;;;;;;;;;;-0.80;97.30;;;-1.34;100.00;100827.44;5081876;27;19950;-78
2022/03/04 06:23:05;;;;;;;;;;;-0.30;97.60;;;-1.39;100.00;100842.78;5074178;27;19974;-78
2022/03/04 06:25:37;;;;;;;;;;;-0.40;96.80;;;-1.37;100.00;100847.97;5047949;27;19940;-78
2022/03/04 06:28:10;;;;;;;;;;;-0.50;96.70;;;-1.52;100.00;100854.41;5097508;28;19934;-78
2022/03/04 06:30:49;;;;;;;;;;;-0.40;97.20;;;-1.63;100.00;100850.59;5010487;28;20008;-78
2022/03/04 06:33:32;;;;;;;;;;;0.00;96.50;;;-1.61;100.00;100847.22;5044093;28;19935;-78
2022/03/04 06:36:13;;;;;;;;;;;-0.20;97.30;;;-1.70;100.00;100846.94;5029787;28;19943;-77
2022/03/04 06:39:10;;;;;;;;;;;1.20;97.90;;;-1.78;100.00;100850.94;5045251;28;19931;-77
2022/03/04 06:41:56;;;;;;;;;;;-1.10;97.30;;;-1.75;100.00;100858.78;5019911;28;19938;-78
2022/03/04 06:44:39;;;;;;;;;;;0.00;98.00;;;-1.67;100.00;100867.69;5052013;28;20015;-78
2022/03/04 06:47:16;;;;;;;;;;;-0.70;98.00;;;-1.68;100.00;100875.34;5051489;28;19968;-77
2022/03/04 06:49:47;;;;;;;;;;;-0.80;98.40;;;-1.59;100.00;100883.41;5035965;28;19933;-78
2022/03/04 06:52:14;;;;;;;;;;;-0.50;98.50;;;-1.63;100.00;100876.41;5031706;28;20633;-78
2022/03/04 06:54:41;;;;;;;;;;;0.50;98.90;;;-1.63;100.00;100884.16;5047124;28;19925;-78
2022/03/04 06:57:08;;;;;;;;;;;-0.50;98.70;;;-1.66;100.00;100886.59;5029857;28;19928;-78
2022/03/04 06:59:38;;;;;;;;;;;-0.30;98.30;;;-1.61;100.00;100890.25;5041339;28;19933;-78
2022/03/04 07:02:47;;;;;;;;;;;-0.70;97.90;;;-1.55;100.00;100895.59;5043224;28;19927;-78
2022/03/04 07:05:45;;;;;;;;;;;-0.60;98.00;;;-1.74;100.00;100901.81;5033789;28;19947;-74
2022/03/04 07:08:13;;;;;;;;;;;-0.50;97.50;;;-1.72;100.00;100903.63;5047990;28;19928;-77
2022/03/04 07:10:45;;;;;;;;;;;1.10;99.20;;;-1.50;100.00;100909.53;5035834;28;20051;-77
2022/03/04 07:13:12;;;;;;;;;;;-0.70;98.80;;;-1.30;100.00;100914.50;5034776;28;19968;-78
2022/03/04 07:15:41;;;;;;;;;;;-0.60;99.10;;;-1.12;100.00;100921.97;5035363;28;19964;-77
2022/03/04 07:18:09;;;;;;;;;;;-0.40;98.70;;;-0.95;100.00;100924.22;5051664;28;19995;-77
2022/03/04 07:20:36;;;;;;;;;;;-1.30;98.60;;;-0.83;100.00;100914.28;5034454;28;19964;-77
2022/03/04 07:23:04;;;;;;;;;;;-0.60;98.10;;;-0.64;100.00;100925.19;5050176;28;19959;-77
2022/03/04 07:25:31;;;;;;;;;;;2.10;98.20;;;-0.51;100.00;100916.97;5031799;28;19931;-78
2022/03/04 07:27:58;;;;;;;;;;;0.20;97.50;;;-0.43;100.00;100914.63;5031119;28;19936;-78
2022/03/04 07:30:25;;;;;;;;;;;0.30;97.30;;;-0.33;100.00;100916.66;5030762;28;19991;-78
2022/03/04 07:32:52;;;;;;;;;;;2.10;97.40;;;-0.22;100.00;100916.09;5031568;28;20447;-78
2022/03/04 07:35:19;;;;;;;;;;;0.40;96.40;;;-0.08;100.00;100921.66;5044724;28;20511;-78
2022/03/04 07:37:46;;;;;;;;;;;1.30;97.40;;;0.02;100.00;100917.63;5050208;28;19966;-78
2022/03/04 07:40:14;;;;;;;;;;;0.70;96.60;;;0.11;100.00;100921.34;5049539;28;19940;-78
2022/03/04 07:42:42;;;;;;;;;;;0.90;97.00;;;0.21;100.00;100922.47;5050148;28;19932;-78
2022/03/04 07:45:10;;;;;;;;;;;1.80;96.70;;;0.31;100.00;100921.00;5043125;28;19968;-78
2022/03/04 07:47:39;;;;;;;;;;;0.90;96.50;;;0.42;100.00;100919.56;5047905;28;19925;-77
2022/03/04 07:50:08;;;;;;;;;;;0.90;96.40;;;0.50;100.00;100917.19;5047908;28;19924;-77
2022/03/04 07:52:36;;;;;;;;;;;1.00;96.20;;;0.61;100.00;100921.78;5030930;28;19931;-77
2022/03/04 07:55:11;;;;;;;;;;;1.20;96.60;;;0.74;100.00;100920.38;5031985;28;19932;-77
2022/03/04 07:57:38;;;;;;;;;;;1.30;96.70;;;0.84;100.00;100923.22;5066034;28;19928;-78
2022/03/04 08:00:08;;;;;;;;;;;1.30;96.60;;;0.93;100.00;100919.13;5033297;28;20480;-78
2022/03/04 08:02:39;;;;;;;;;;;1.60;96.50;;;1.06;100.00;100916.00;5065881;28;20039;-77
2022/03/04 08:05:08;;;;;;;;;;;1.60;96.50;;;1.15;100.00;100919.63;5078283;28;19924;-78
2022/03/04 08:07:39;;;;;;;;;;;1.70;96.10;;;1.29;100.00;100919.97;5047161;28;19936;-78
2022/03/04 08:10:07;;;;;;;;;;;1.90;96.20;;;1.40;100.00;100918.47;5033682;28;19960;-78
2022/03/04 08:12:35;;;;;;;;;;;1.90;96.10;;;1.49;100.00;100920.41;5034276;28;19925;-78
2022/03/04 08:15:02;;;;;;;;;;;1.90;95.80;;;1.54;100.00;100929.16;5037182;28;19932;-78
2022/03/04 08:17:30;;;;;;;;;;;2.20;95.60;;;1.63;100.00;100926.75;5052516;28;19928;-78
2022/03/04 08:20:00;;;;;;;;;;;2.20;95.60;;;1.73;100.00;100926.97;5072909;28;20011;-78
2022/03/04 08:22:29;;;;;;;;;;;2.20;95.60;;;1.81;100.00;100928.88;5056050;28;19931;-77
2022/03/04 08:25:03;;;;;;;;;;;3.10;95.60;;;1.93;100.00;100932.59;5071553;28;19924;-76
2022/03/04 08:27:30;;;;;;;;;;;4.60;95.90;;;2.02;100.00;100931.91;5038549;28;19929;-77
2022/03/04 08:29:57;;;;;;;;;;;3.50;95.40;;;2.16;99.66;100932.16;5072163;28;19928;-77
2022/03/04 08:32:24;;;;;;;;;;;2.60;94.90;;;2.23;97.96;100942.69;5056114;28;20019;-78
2022/03/04 08:34:59;;;;;;;;;;;2.90;94.60;;;2.34;97.07;100940.31;5039940;28;19928;-77
2022/03/04 08:37:27;;;;;;;;;;;2.90;94.50;;;2.44;96.47;100945.69;5072176;28;19924;-78
2022/03/04 08:39:54;;;;;;;;;;;2.90;94.40;;;2.54;94.72;100940.69;5055058;28;19928;-78
2022/03/04 08:42:22;;;;;;;;;;;5.50;94.90;;;2.59;93.40;100951.16;5051597;28;20393;-76
2022/03/04 08:44:49;;;;;;;;;;;3.00;94.00;;;2.74;91.31;100955.78;5051607;28;20278;-77
2022/03/04 08:47:16;;;;;;;;;;;3.10;93.70;;;2.78;90.68;100948.88;5052141;28;19994;-77
2022/03/04 08:49:43;;;;;;;;;;;3.30;93.60;;;2.87;89.44;100950.75;5051548;28;19964;-77
2022/03/04 08:52:10;;;;;;;;;;;3.40;93.50;;;2.93;88.61;100954.34;5054254;28;19935;-77
2022/03/04 08:54:37;;;;;;;;;;;3.40;93.30;;;3.03;87.80;100954.50;5054766;28;19951;-77
2022/03/04 08:57:04;;;;;;;;;;;3.50;93.20;;;3.08;85.78;100952.84;5053873;28;19928;-78
2022/03/04 08:59:32;;;;;;;;;;;3.60;93.00;;;3.17;85.21;100953.00;5044202;28;19925;-78
2022/03/04 09:02:01;;;;;;;;;;;3.70;92.90;;;3.25;85.27;100958.31;5056150;28;19930;-78
2022/03/04 09:04:28;;;;;;;;;;;3.70;92.80;;;3.32;84.05;100952.34;5055774;28;20419;-77
2022/03/04 09:06:55;;;;;;;;;;;3.70;92.70;;;3.39;83.38;100954.22;5063731;28;19975;-78
2022/03/04 09:09:22;;;;;;;;;;;3.90;92.60;;;3.48;82.00;100944.78;5052024;28;19936;-77
2022/03/04 09:11:49;;;;;;;;;;;3.70;92.30;;;3.55;80.63;100951.84;5070370;28;19935;-76
2022/03/04 09:14:19;;;;;;;;;;;5.00;92.40;;;3.63;80.59;100936.34;5071529;28;19931;-78
2022/03/04 09:16:46;;;;;;;;;;;4.10;92.10;;;3.68;79.75;100938.16;5072831;28;20347;-77
2022/03/04 09:19:13;;;;;;;;;;;4.10;92.00;;;3.79;79.71;100935.69;5057237;28;19928;-77
2022/03/04 09:21:41;;;;;;;;;;;4.30;92.00;;;3.84;79.06;100940.94;5056754;28;19928;-78
2022/03/04 09:24:08;;;;;;;;;;;4.10;91.80;;;3.94;77.80;100940.19;5089175;28;19970;-76
2022/03/04 09:26:36;;;;;;;;;;;4.30;91.60;;;4.01;76.21;100946.34;5067967;28;20057;-77
2022/03/04 09:29:12;;;;;;;;;;;4.90;91.60;;;4.10;77.32;100936.06;5064226;28;19929;-77
2022/03/04 09:31:42;;;;;;;;;;;4.40;91.40;;;4.20;74.40;100942.25;5081225;28;19928;-77
2022/03/04 09:34:09;;;;;;;;;;;4.50;90.90;;;4.32;73.06;100938.91;5069562;28;20076;-76
2022/03/04 09:36:36;;;;;;;;;;;6.90;91.60;;;4.33;71.57;100927.63;5041179;28;19928;-76
2022/03/04 09:39:04;;;;;;;;;;;4.70;90.40;;;4.45;72.26;100934.72;5044416;28;19937;-76
2022/03/04 09:41:31;;;;;;;;;;;5.20;90.50;;;4.53;70.63;100938.25;5059274;28;19939;-78
2022/03/04 09:43:59;;;;;;;;;;;4.90;90.20;;;4.61;69.89;100927.03;5050048;28;20325;-78
2022/03/04 09:46:27;;;;;;;;;;;4.90;90.00;;;4.62;68.18;100918.38;5048600;28;19935;-75
2022/03/04 09:48:54;;;;;;;;;;;5.00;89.20;;;4.75;68.00;100925.41;5039510;28;19924;-76
2022/03/04 09:51:22;;;;;;;;;;;5.10;89.10;;;4.81;68.73;100928.09;5073057;28;20428;-75
2022/03/04 09:53:52;;;;;;;;;;;5.20;89.30;;;4.91;68.59;100921.22;5038259;28;20015;-79
2022/03/04 09:56:19;;;;;;;;;;;5.20;89.10;;;5.02;68.10;100926.50;5073074;28;20578;-77
2022/03/04 09:58:47;;;;;;;;;;;7.00;90.00;;;5.11;65.96;100928.31;5071035;28;19924;-77
2022/03/04 10:01:15;;;;;;;;;;;5.40;87.60;;;5.35;64.48;100917.19;5069729;28;20721;-76
2022/03/04 10:03:48;;;;;;;;;;;6.50;87.40;;;5.52;62.86;100916.41;5067416;28;19951;-76
2022/03/04 10:06:16;;;;;;;;;;;6.10;85.90;;;5.60;61.77;100922.56;5068690;28;19951;-76
2022/03/04 10:08:53;;;;;;;;;;;5.90;84.50;;;5.71;60.80;100917.38;5018115;28;19964;-75
2022/03/04 10:11:32;;;;;;;;;;;6.00;83.90;;;5.86;58.14;100923.53;5034824;28;19925;-77
2022/03/04 10:14:01;;;;;;;;;;;6.10;81.00;;;5.99;57.74;100920.13;5053792;28;19925;-77
2022/03/04 10:16:34;;;;;;;;;;;6.40;80.20;;;6.12;56.03;100923.66;5053049;28;19935;-77
2022/03/04 10:19:10;;;;;;;;;;;6.40;78.30;;;6.24;55.34;100917.59;5033598;28;19928;-77
2022/03/04 10:21:52;;;;;;;;;;;6.60;77.20;;;6.35;54.85;100925.50;5050480;28;20156;-76
2022/03/04 10:24:22;;;;;;;;;;;6.60;75.90;;;6.42;54.32;100918.53;5067069;28;20023;-76
2022/03/04 10:27:12;;;;;;;;;;;6.80;75.40;;;6.57;54.43;100920.31;5067189;28;19935;-75
2022/03/04 10:29:42;;;;;;;;;;;6.80;75.40;;;6.69;53.72;100914.19;5034890;28;20015;-77
2022/03/04 10:32:26;;;;;;;;;;;7.00;74.50;;;6.83;52.95;100909.00;5067235;28;19983;-76
2022/03/04 10:35:04;;;;;;;;;;;7.00;72.40;;;6.89;52.49;100916.84;5067990;28;19935;-76
2022/03/04 10:37:52;;;;;;;;;;;7.20;72.00;;;6.98;51.83;100909.00;5071504;28;19932;-76
2022/03/04 10:40:31;;;;;;;;;;;7.20;70.90;;;7.08;51.15;100907.25;5054740;28;19929;-77
2022/03/04 10:42:59;;;;;;;;;;;7.40;69.50;;;7.21;49.95;100910.72;5034048;28;20297;-76
2022/03/04 10:45:28;;;;;;;;;;;7.40;67.90;;;7.35;49.97;100911.56;5052292;28;19967;-77
2022/03/04 10:47:56;;;;;;;;;;;7.60;67.30;;;7.31;49.68;100911.56;5071539;28;20002;-76
2022/03/04 10:50:33;;;;;;;;;;;7.70;66.40;;;7.38;49.47;100902.84;5072650;28;20530;-76
2022/03/04 10:53:06;;;;;;;;;;;7.70;66.00;;;7.51;48.71;100898.44;5053630;28;19963;-77
2022/03/04 10:55:41;;;;;;;;;;;7.80;64.80;;;7.69;48.34;100902.75;5069491;28;20348;-77
2022/03/04 10:58:27;;;;;;;;;;;7.90;64.70;;;7.81;47.34;100901.81;5071026;28;19928;-77
2022/03/04 11:00:59;;;;;;;;;;;8.10;62.70;;;7.84;48.09;100899.19;5052913;28;19940;-76
2022/03/04 11:03:29;;;;;;;;;;;8.10;62.90;;;8.02;47.85;100892.13;5052723;28;19929;-77
2022/03/04 11:06:00;;;;;;;;;;;8.20;63.10;;;8.04;46.75;100892.97;5034255;28;19924;-78
2022/03/04 11:08:27;;;;;;;;;;;8.30;61.80;;;8.01;46.13;100896.50;5053285;28;19993;-77
2022/03/04 11:11:00;;;;;;;;;;;8.30;60.10;;;7.97;45.97;100883.41;5057018;28;19924;-78
2022/03/04 11:13:29;;;;;;;;;;;8.30;59.20;;;8.15;46.60;100890.31;5068031;28;20300;-79
2022/03/04 11:15:56;;;;;;;;;;;7.80;59.90;;;8.11;45.87;100892.06;5052490;28;20594;-78
2022/03/04 11:18:24;;;;;;;;;;;8.40;58.60;;;8.18;45.05;100885.06;5063732;28;19929;-78
2022/03/04 11:20:56;;;;;;;;;;;8.50;57.90;;;8.35;44.99;100887.56;5036209;28;19947;-79
2022/03/04 11:23:26;;;;;;;;;;;8.60;57.80;;;8.32;44.09;100885.84;5039197;28;19960;-78
2022/03/04 11:25:58;;;;;;;;;;;8.60;56.60;;;8.37;44.51;100885.81;5037929;28;19999;-78
2022/03/04 11:28:50;;;;;;;;;;;10.10;57.60;;;8.36;44.39;100879.69;5056046;28;19935;-77